Time;durP1;ratioP1;P1;durP2;ratioP2;P2;SDS_P1;SDS_P2;PMS_P1;PMS_P2;Temp;Humidity;BMP_temperature;BMP_pressure;BME280_temperature;BME280_humidity;BME280_pressure;Samples;Min_cycle;Max_cycle;Signal;HPM_P1;HPM_P2
2022/04/07 00:02:06;;;;;;;19.10;5.53;;;;;;;;;;5035051;28;20139;-72
2022/04/07 00:04:32;;;;;;;9.98;5.03;;;;;;;;;;5034952;28;20105;-71
2022/04/07 00:06:58;;;;;;;12.50;5.43;;;;;;;;;;5034768;28;20026;-71
2022/04/07 00:09:24;;;;;;;10.77;5.63;;;;;;;;;;5047388;28;20482;-71
2022/04/07 00:11:50;;;;;;;10.13;5.78;;;;;;;;;;5044138;28;20049;-71
2022/04/07 00:14:16;;;;;;;8.88;5.13;;;;;;;;;;5034844;28;20045;-73
2022/04/07 00:16:43;;;;;;;11.23;5.18;;;;;;;;;;5033630;28;20040;-72
2022/04/07 00:19:09;;;;;;;9.23;4.72;;;;;;;;;;5039232;28;20076;-71
2022/04/07 00:21:40;;;;;;;11.32;5.20;;;;;;;;;;5049834;28;20022;-80
2022/04/07 00:24:07;;;;;;;10.82;5.07;;;;;;;;;;5034657;28;20017;-75
2022/04/07 00:26:34;;;;;;;12.60;5.70;;;;;;;;;;5034712;28;20029;-76
2022/04/07 00:29:00;;;;;;;12.77;6.50;;;;;;;;;;5034297;28;20031;-71
2022/04/07 00:31:26;;;;;;;9.45;5.35;;;;;;;;;;5052171;28;20036;-72
2022/04/07 00:33:53;;;;;;;9.80;5.28;;;;;;;;;;5032716;28;20099;-72
2022/04/07 00:36:19;;;;;;;9.20;5.45;;;;;;;;;;5035036;28;20028;-71
2022/04/07 00:38:50;;;;;;;8.60;4.80;;;;;;;;;;5035027;28;20513;-71
2022/04/07 00:41:16;;;;;;;11.57;6.63;;;;;;;;;;5029992;28;20037;-72
2022/04/07 00:43:42;;;;;;;14.02;6.65;;;;;;;;;;5042216;28;20029;-78
2022/04/07 00:46:08;;;;;;;10.80;6.00;;;;;;;;;;5034270;28;20067;-72
2022/04/07 00:48:35;;;;;;;12.82;5.68;;;;;;;;;;5032850;28;20080;-72
2022/04/07 00:51:02;;;;;;;10.65;6.20;;;;;;;;;;5035254;28;20036;-72
2022/04/07 00:53:32;;;;;;;13.70;6.35;;;;;;;;;;5035507;28;20397;-71
2022/04/07 00:56:00;;;;;;;11.30;6.40;;;;;;;;;;5035685;28;20060;-71
2022/04/07 00:58:27;;;;;;;15.57;6.72;;;;;;;;;;5034029;28;20541;-72
2022/04/07 01:00:53;;;;;;;14.82;6.28;;;;;;;;;;5032700;28;20053;-72
2022/04/07 01:03:20;;;;;;;21.00;6.38;;;;;;;;;;5033399;28;20068;-71
2022/04/07 01:05:46;;;;;;;17.38;5.82;;;;;;;;;;5032417;28;20036;-72
2022/04/07 01:08:12;;;;;;;14.82;6.00;;;;;;;;;;5032550;28;20033;-73
2022/04/07 01:10:38;;;;;;;19.05;5.90;;;;;;;;;;5033666;28;20096;-71
2022/04/07 01:13:04;;;;;;;21.75;5.53;;;;;;;;;;5034748;28;20032;-78
2022/04/07 01:15:30;;;;;;;21.20;5.85;;;;;;;;;;5033348;28;20185;-73
2022/04/07 01:17:58;;;;;;;20.95;6.55;;;;;;;;;;5035763;28;20409;-71
2022/04/07 01:20:24;;;;;;;24.85;6.15;;;;;;;;;;5033361;28;20045;-71
2022/04/07 01:22:51;;;;;;;24.33;6.30;;;;;;;;;;5035194;28;20037;-71
2022/04/07 01:25:18;;;;;;;21.15;5.75;;;;;;;;;;5051947;28;20514;-71
2022/04/07 01:27:48;;;;;;;24.70;6.15;;;;;;;;;;5033988;28;20022;-71
2022/04/07 01:30:15;;;;;;;24.50;5.88;;;;;;;;;;5035393;28;20040;-72
2022/04/07 01:32:47;;;;;;;22.05;6.30;;;;;;;;;;5033967;28;20029;-72
2022/04/07 01:35:13;;;;;;;23.42;5.60;;;;;;;;;;5034440;28;20116;-79
2022/04/07 01:37:41;;;;;;;18.23;5.18;;;;;;;;;;5032854;28;20108;-76
2022/04/07 01:40:09;;;;;;;25.15;5.85;;;;;;;;;;5031707;28;20029;-72
2022/04/07 01:42:37;;;;;;;19.13;5.45;;;;;;;;;;5033283;28;20025;-71
2022/04/07 01:45:04;;;;;;;21.70;5.38;;;;;;;;;;5050881;28;20025;-72
2022/04/07 01:47:32;;;;;;;21.95;6.13;;;;;;;;;;5045008;28;20031;-78
2022/04/07 01:50:05;;;;;;;24.15;5.97;;;;;;;;;;5033310;28;20025;-71
2022/04/07 01:52:32;;;;;;;24.58;6.28;;;;;;;;;;5033139;28;20032;-71
2022/04/07 01:54:59;;;;;;;25.70;5.43;;;;;;;;;;5040270;28;20075;-71
2022/04/07 01:57:26;;;;;;;23.88;5.97;;;;;;;;;;5032883;28;20526;-73
2022/04/07 01:59:52;;;;;;;16.98;5.43;;;;;;;;;;5032876;28;20055;-73
2022/04/07 02:02:19;;;;;;;22.15;5.75;;;;;;;;;;5032078;28;20018;-71
2022/04/07 02:04:52;;;;;;;22.25;5.90;;;;;;;;;;5034150;28;20033;-72
2022/04/07 02:07:18;;;;;;;19.95;5.13;;;;;;;;;;5033110;28;20026;-72
2022/04/07 02:09:44;;;;;;;21.20;4.93;;;;;;;;;;5032789;28;20026;-72
2022/04/07 02:12:10;;;;;;;31.25;5.40;;;;;;;;;;5032176;28;20025;-70
2022/04/07 02:14:36;;;;;;;21.80;5.00;;;;;;;;;;5033337;28;20037;-72
2022/04/07 02:17:03;;;;;;;24.52;5.13;;;;;;;;;;5034055;28;20057;-71
2022/04/07 02:19:30;;;;;;;23.85;4.90;;;;;;;;;;5032169;28;20046;-72
2022/04/07 02:21:56;;;;;;;18.75;5.75;;;;;;;;;;5033246;28;20022;-71
2022/04/07 02:24:22;;;;;;;22.42;5.45;;;;;;;;;;5036929;28;20391;-71
2022/04/07 02:26:48;;;;;;;21.45;4.72;;;;;;;;;;5038008;28;20453;-71
2022/04/07 02:29:14;;;;;;;23.92;5.20;;;;;;;;;;5035868;28;20026;-71
2022/04/07 02:31:40;;;;;;;19.48;5.10;;;;;;;;;;5036483;28;20113;-71
2022/04/07 02:34:06;;;;;;;24.95;4.65;;;;;;;;;;5035940;28;20057;-71
2022/04/07 02:36:33;;;;;;;20.27;4.60;;;;;;;;;;5037554;28;20032;-72
2022/04/07 02:38:59;;;;;;;19.80;5.22;;;;;;;;;;5036977;28;20075;-71
2022/04/07 02:41:26;;;;;;;16.92;4.63;;;;;;;;;;5035436;28;20455;-76
2022/04/07 02:43:55;;;;;;;20.88;4.93;;;;;;;;;;5036687;28;20021;-73
2022/04/07 02:46:21;;;;;;;19.67;5.35;;;;;;;;;;5035624;28;20024;-72
2022/04/07 02:48:48;;;;;;;24.60;5.38;;;;;;;;;;5050910;28;20029;-71
2022/04/07 02:51:15;;;;;;;19.95;4.90;;;;;;;;;;5049717;28;20104;-72
2022/04/07 02:53:41;;;;;;;15.40;4.30;;;;;;;;;;5036272;28;20040;-71
2022/04/07 02:56:07;;;;;;;20.73;4.45;;;;;;;;;;5036978;28;20096;-73
2022/04/07 02:58:33;;;;;;;24.33;4.55;;;;;;;;;;5042149;28;20433;-71
2022/04/07 03:00:59;;;;;;;16.48;4.15;;;;;;;;;;5040671;28;20028;-77
2022/04/07 03:03:25;;;;;;;20.52;5.07;;;;;;;;;;5035895;28;20030;-71
2022/04/07 03:05:51;;;;;;;19.98;5.05;;;;;;;;;;5038483;28;20479;-72
2022/04/07 03:08:18;;;;;;;19.77;4.50;;;;;;;;;;5037283;28;20037;-71
2022/04/07 03:10:44;;;;;;;18.17;4.50;;;;;;;;;;5054315;28;20397;-71
2022/04/07 03:13:10;;;;;;;26.13;5.13;;;;;;;;;;5046545;28;20104;-70
2022/04/07 03:15:36;;;;;;;23.10;5.32;;;;;;;;;;5035069;28;20025;-71
2022/04/07 03:18:02;;;;;;;21.17;4.43;;;;;;;;;;5034940;28;20072;-72
2022/04/07 03:20:28;;;;;;;19.05;4.90;;;;;;;;;;5036574;28;20554;-72
2022/04/07 03:22:55;;;;;;;19.35;4.70;;;;;;;;;;5036628;28;20083;-71
2022/04/07 03:25:21;;;;;;;16.80;4.05;;;;;;;;;;5019727;28;20059;-71
2022/04/07 03:27:47;;;;;;;22.75;5.43;;;;;;;;;;5035736;28;20087;-72
2022/04/07 03:30:13;;;;;;;18.77;4.57;;;;;;;;;;5038507;28;20075;-72
2022/04/07 03:32:39;;;;;;;18.45;4.32;;;;;;;;;;5034963;28;20044;-72
2022/04/07 03:35:05;;;;;;;19.20;4.65;;;;;;;;;;5033862;28;20076;-77
2022/04/07 03:37:31;;;;;;;15.20;4.25;;;;;;;;;;5035143;28;20045;-81
2022/04/07 03:39:57;;;;;;;17.85;4.05;;;;;;;;;;5035779;28;20449;-71
2022/04/07 03:42:23;;;;;;;17.73;4.95;;;;;;;;;;5039516;28;20029;-70
2022/04/07 03:44:49;;;;;;;19.08;4.10;;;;;;;;;;5035070;28;20028;-72
2022/04/07 03:47:15;;;;;;;17.98;4.43;;;;;;;;;;5034541;28;20031;-76
2022/04/07 03:49:42;;;;;;;20.67;5.13;;;;;;;;;;5039769;28;20021;-71
2022/04/07 03:52:08;;;;;;;15.05;4.35;;;;;;;;;;5035678;28;20359;-71
2022/04/07 03:54:34;;;;;;;18.73;5.15;;;;;;;;;;5035093;28;20029;-72
2022/04/07 03:57:01;;;;;;;22.17;4.32;;;;;;;;;;5036720;28;20025;-78
2022/04/07 03:59:28;;;;;;;14.07;4.03;;;;;;;;;;5034297;28;21659;-78
2022/04/07 04:01:55;;;;;;;17.48;4.53;;;;;;;;;;5034113;28;20022;-77
2022/04/07 04:04:22;;;;;;;15.00;5.13;;;;;;;;;;5035018;28;20482;-72
2022/04/07 04:06:51;;;;;;;12.63;4.25;;;;;;;;;;5033625;28;20030;-70
2022/04/07 04:09:17;;;;;;;13.75;4.90;;;;;;;;;;5035151;28;20026;-74
2022/04/07 04:11:43;;;;;;;19.48;4.60;;;;;;;;;;5033875;28;20061;-70
2022/04/07 04:14:09;;;;;;;17.15;4.40;;;;;;;;;;5047602;28;20029;-70
2022/04/07 04:16:35;;;;;;;14.90;4.32;;;;;;;;;;5051012;28;20083;-72
2022/04/07 04:19:01;;;;;;;16.00;4.57;;;;;;;;;;5033268;28;20391;-77
2022/04/07 04:21:27;;;;;;;17.30;5.15;;;;;;;;;;5034668;28;20025;-77
2022/04/07 04:23:56;;;;;;;18.02;5.63;;;;;;;;;;5035817;28;20037;-71
2022/04/07 04:26:22;;;;;;;21.23;5.40;;;;;;;;;;5032738;28;20032;-71
2022/04/07 04:28:48;;;;;;;21.63;6.10;;;;;;;;;;5034070;28;20025;-71
2022/04/07 04:31:14;;;;;;;16.95;5.68;;;;;;;;;;5035480;28;20051;-71
2022/04/07 04:33:40;;;;;;;17.25;6.05;;;;;;;;;;5031954;28;20393;-72
2022/04/07 04:36:07;;;;;;;22.02;5.30;;;;;;;;;;5034504;28;20033;-72
2022/04/07 04:38:33;;;;;;;16.23;5.20;;;;;;;;;;5032669;28;20045;-70
2022/04/07 04:40:59;;;;;;;18.70;6.45;;;;;;;;;;5033854;28;20025;-70
2022/04/07 04:43:25;;;;;;;19.65;6.00;;;;;;;;;;5034171;28;20021;-71
2022/04/07 04:45:52;;;;;;;16.58;5.57;;;;;;;;;;5034561;28;20481;-69
2022/04/07 04:48:18;;;;;;;18.13;6.32;;;;;;;;;;5033924;28;20076;-74
2022/04/07 04:50:44;;;;;;;17.50;5.60;;;;;;;;;;5033703;28;20075;-71
2022/04/07 04:53:10;;;;;;;17.05;5.90;;;;;;;;;;5034993;28;20093;-74
2022/04/07 04:55:36;;;;;;;18.70;5.90;;;;;;;;;;5036863;28;20025;-71
2022/04/07 04:58:02;;;;;;;16.75;6.00;;;;;;;;;;5053959;28;20079;-75
2022/04/07 05:00:28;;;;;;;13.30;4.63;;;;;;;;;;5039884;28;20025;-71
2022/04/07 05:02:54;;;;;;;19.77;5.50;;;;;;;;;;5033732;28;20029;-71
2022/04/07 05:05:20;;;;;;;13.55;4.80;;;;;;;;;;5033984;28;20072;-71
2022/04/07 05:07:47;;;;;;;17.33;4.90;;;;;;;;;;5032997;28;20513;-72
2022/04/07 05:10:13;;;;;;;16.70;5.65;;;;;;;;;;5032069;28;20071;-78
2022/04/07 05:12:40;;;;;;;12.75;5.05;;;;;;;;;;5036138;28;20021;-71
2022/04/07 05:15:07;;;;;;;14.50;4.40;;;;;;;;;;5028341;28;20052;-78
2022/04/07 05:17:33;;;;;;;10.88;4.35;;;;;;;;;;5027649;28;20073;-75
2022/04/07 05:19:59;;;;;;;16.95;5.63;;;;;;;;;;5024556;28;20037;-74
2022/04/07 05:22:27;;;;;;;17.95;6.95;;;;;;;;;;5027462;28;20048;-76
2022/04/07 05:24:53;;;;;;;16.02;5.45;;;;;;;;;;5039585;28;20088;-73
2022/04/07 05:27:19;;;;;;;13.88;5.07;;;;;;;;;;5037664;28;20479;-73
2022/04/07 05:29:45;;;;;;;13.05;4.20;;;;;;;;;;5043342;28;20390;-74
2022/04/07 05:32:11;;;;;;;13.18;4.95;;;;;;;;;;5028605;28;20392;-79
2022/04/07 05:34:38;;;;;;;15.68;5.00;;;;;;;;;;5033555;28;20056;-78
2022/04/07 05:37:04;;;;;;;13.40;4.10;;;;;;;;;;5042066;28;20044;-81
2022/04/07 05:39:30;;;;;;;17.65;5.50;;;;;;;;;;5036497;28;20041;-74
2022/04/07 05:41:56;;;;;;;16.65;4.80;;;;;;;;;;5033383;28;20036;-71
2022/04/07 05:44:22;;;;;;;14.27;4.45;;;;;;;;;;5036117;28;20505;-86
2022/04/07 05:46:48;;;;;;;13.18;4.53;;;;;;;;;;5037911;28;20017;-84
2022/04/07 05:49:14;;;;;;;14.88;4.70;;;;;;;;;;5036995;28;20040;-79
2022/04/07 05:51:40;;;;;;;17.58;4.90;;;;;;;;;;5034192;28;20116;-76
2022/04/07 05:54:07;;;;;;;14.15;4.63;;;;;;;;;;5032865;28;20034;-75
2022/04/07 05:56:34;;;;;;;19.20;5.38;;;;;;;;;;5037018;28;20029;-72
2022/04/07 05:59:00;;;;;;;13.80;4.68;;;;;;;;;;5033900;28;20487;-77
2022/04/07 06:01:26;;;;;;;16.25;5.90;;;;;;;;;;5031969;28;20022;-75
2022/04/07 06:03:52;;;;;;;12.73;4.85;;;;;;;;;;5026787;28;20033;-73
2022/04/07 06:06:18;;;;;;;14.98;4.43;;;;;;;;;;5030346;28;20034;-73
2022/04/07 06:08:44;;;;;;;14.95;5.07;;;;;;;;;;5032570;28;20085;-74
2022/04/07 06:11:11;;;;;;;14.80;4.47;;;;;;;;;;5040043;28;20023;-72
2022/04/07 06:13:38;;;;;;;14.27;4.78;;;;;;;;;;5037846;28;20033;-72
2022/04/07 06:16:04;;;;;;;13.90;4.50;;;;;;;;;;5034411;28;20049;-74
2022/04/07 06:18:31;;;;;;;16.23;4.30;;;;;;;;;;5032956;28;20047;-72
2022/04/07 06:20:57;;;;;;;14.48;3.80;;;;;;;;;;5030698;28;20083;-82
2022/04/07 06:23:26;;;;;;;13.90;4.13;;;;;;;;;;5028067;28;20092;-82
2022/04/07 06:25:52;;;;;;;11.27;3.78;;;;;;;;;;5030658;28;20026;-74
2022/04/07 06:28:22;;;;;;;14.57;4.25;;;;;;;;;;5031055;28;20021;-81
2022/04/07 06:30:49;;;;;;;13.93;4.40;;;;;;;;;;5032484;28;20486;-77
2022/04/07 06:33:15;;;;;;;18.13;4.32;;;;;;;;;;5029993;28;20030;-82
2022/04/07 06:35:41;;;;;;;14.77;3.90;;;;;;;;;;5029872;28;20108;-76
2022/04/07 06:38:07;;;;;;;12.18;4.13;;;;;;;;;;5037111;28;20070;-75
2022/04/07 06:40:33;;;;;;;10.57;4.00;;;;;;;;;;5032797;28;20132;-79
2022/04/07 06:42:59;;;;;;;11.45;4.55;;;;;;;;;;5030802;28;20060;-72
2022/04/07 06:45:26;;;;;;;11.65;5.05;;;;;;;;;;5031653;28;20091;-72
2022/04/07 06:47:52;;;;;;;14.95;5.15;;;;;;;;;;5030939;28;20025;-73
2022/04/07 06:50:19;;;;;;;23.13;5.63;;;;;;;;;;5031088;28;20038;-74
2022/04/07 06:52:46;;;;;;;16.75;5.15;;;;;;;;;;5034725;28;20055;-69
2022/04/07 06:55:12;;;;;;;15.25;5.07;;;;;;;;;;5032713;28;20060;-69
2022/04/07 06:57:55;;;;;;;16.92;4.82;;;;;;;;;;5036218;28;20052;-70
2022/04/07 07:00:22;;;;;;;26.55;18.83;;;;;;;;;;5035392;28;20061;-69
2022/04/07 07:02:48;;;;;;;26.08;8.60;;;;;;;;;;5032366;28;20017;-73
2022/04/07 07:05:15;;;;;;;13.63;7.70;;;;;;;;;;5033041;28;20108;-71
2022/04/07 07:07:42;;;;;;;19.33;6.40;;;;;;;;;;5037045;28;20024;-85
2022/04/07 07:10:08;;;;;;;16.13;4.93;;;;;;;;;;5036223;28;20033;-79
2022/04/07 07:18:12;;;;;;;10.68;4.15;;;;;;;;;;5044881;23;20030;-72
2022/04/07 07:20:39;;;;;;;18.67;7.57;;;;;;;;;;5006750;28;20475;-75
2022/04/07 07:23:05;;;;;;;15.23;5.00;;;;;;;;;;5026558;28;20045;-75
2022/04/07 07:25:31;;;;;;;9.30;4.28;;;;;;;;;;5003039;28;20013;-79
2022/04/07 07:28:01;;;;;;;13.05;4.70;;;;;;;;;;5030842;28;20115;-75
2022/04/07 07:30:28;;;;;;;13.82;4.15;;;;;;;;;;5029256;28;20038;-73
2022/04/07 07:32:54;;;;;;;15.20;3.92;;;;;;;;;;5017790;28;20022;-76
2022/04/07 07:35:24;;;;;;;12.05;4.07;;;;;;;;;;5019754;28;20035;-75
2022/04/07 07:37:51;;;;;;;13.13;4.68;;;;;;;;;;5021845;28;20121;-76
2022/04/07 07:40:18;;;;;;;16.67;4.65;;;;;;;;;;5015878;28;20481;-74
2022/04/07 07:43:00;;;;;;;13.32;4.10;;;;;;;;;;5036168;28;20022;-75
2022/04/07 07:45:27;;;;;;;14.18;4.40;;;;;;;;;;5025880;28;20018;-76
2022/04/07 07:47:54;;;;;;;9.68;3.97;;;;;;;;;;5024709;28;20049;-77
2022/04/07 07:50:20;;;;;;;7.07;3.50;;;;;;;;;;5024549;28;20033;-75
2022/04/07 07:52:47;;;;;;;8.80;3.97;;;;;;;;;;5023650;28;20053;-75
2022/04/07 07:55:19;;;;;;;9.30;3.80;;;;;;;;;;5035534;28;20025;-77
2022/04/07 07:57:45;;;;;;;12.77;3.77;;;;;;;;;;5021434;28;20046;-75
2022/04/07 08:00:14;;;;;;;11.10;3.90;;;;;;;;;;5019570;28;20776;-75
2022/04/07 08:02:40;;;;;;;8.35;4.10;;;;;;;;;;5011483;28;20049;-75
2022/04/07 08:05:07;;;;;;;7.97;3.55;;;;;;;;;;4989884;28;20080;-75
2022/04/07 08:07:34;;;;;;;12.48;4.07;;;;;;;;;;5014867;28;20038;-74
2022/04/07 08:10:01;;;;;;;8.85;3.70;;;;;;;;;;5020229;28;20388;-75
2022/04/07 08:12:27;;;;;;;8.93;3.15;;;;;;;;;;5012933;28;20029;-73
2022/04/07 08:14:54;;;;;;;7.57;3.28;;;;;;;;;;5013961;28;20038;-77
2022/04/07 08:17:21;;;;;;;9.00;3.70;;;;;;;;;;5019822;28;20072;-77
2022/04/07 08:19:47;;;;;;;9.80;4.30;;;;;;;;;;5021285;28;20037;-75
2022/04/07 08:22:13;;;;;;;6.88;3.50;;;;;;;;;;5019514;28;20026;-75
2022/04/07 08:24:39;;;;;;;10.82;3.13;;;;;;;;;;5025517;28;20038;-73
2022/04/07 08:27:06;;;;;;;9.68;3.30;;;;;;;;;;5021595;28;20125;-73
2022/04/07 08:29:40;;;;;;;8.38;3.45;;;;;;;;;;5032788;28;20383;-78
2022/04/07 08:32:06;;;;;;;9.18;3.33;;;;;;;;;;4995151;28;20061;-76
2022/04/07 08:34:45;;;;;;;9.38;3.20;;;;;;;;;;5009266;28;20060;-75
2022/04/07 08:37:15;;;;;;;9.95;3.38;;;;;;;;;;5018037;28;20120;-71
2022/04/07 08:39:41;;;;;;;6.03;2.88;;;;;;;;;;5020706;28;20034;-72
2022/04/07 08:42:07;;;;;;;4.78;2.78;;;;;;;;;;5006844;28;20031;-76
2022/04/07 08:44:34;;;;;;;9.30;3.78;;;;;;;;;;5012455;28;20479;-75
2022/04/07 08:47:00;;;;;;;9.13;3.95;;;;;;;;;;5014083;28;20034;-75
2022/04/07 08:49:31;;;;;;;6.30;3.47;;;;;;;;;;5009245;28;20051;-72
2022/04/07 08:52:00;;;;;;;8.77;3.00;;;;;;;;;;5014193;28;20022;-71
2022/04/07 08:54:26;;;;;;;6.22;3.03;;;;;;;;;;5009196;28;20029;-71
2022/04/07 08:56:52;;;;;;;5.63;2.90;;;;;;;;;;5014494;28;20049;-76
2022/04/07 08:59:18;;;;;;;6.28;2.72;;;;;;;;;;5017433;28;20076;-71
2022/04/07 09:01:44;;;;;;;6.55;2.90;;;;;;;;;;5016007;28;20527;-73
2022/04/07 09:04:14;;;;;;;7.28;3.20;;;;;;;;;;5016082;28;20525;-71
2022/04/07 09:06:44;;;;;;;7.47;2.67;;;;;;;;;;5012810;28;20032;-72
2022/04/07 09:09:20;;;;;;;5.68;2.40;;;;;;;;;;5010757;28;20068;-70
2022/04/07 09:11:46;;;;;;;8.15;2.70;;;;;;;;;;5012856;28;20105;-70
2022/04/07 09:14:13;;;;;;;6.47;2.58;;;;;;;;;;5006546;28;20053;-69
2022/04/07 09:16:40;;;;;;;7.00;3.10;;;;;;;;;;5006863;28;20434;-71
2022/04/07 09:19:07;;;;;;;6.70;2.50;;;;;;;;;;5010514;28;20044;-70
2022/04/07 09:21:34;;;;;;;8.35;2.80;;;;;;;;;;5013520;28;20018;-71
2022/04/07 09:24:05;;;;;;;5.10;2.90;;;;;;;;;;5015241;28;20039;-72
2022/04/07 09:26:34;;;;;;;6.20;2.85;;;;;;;;;;5012486;28;20027;-72
2022/04/07 09:29:06;;;;;;;8.15;2.90;;;;;;;;;;5015943;28;20022;-71
2022/04/07 09:31:36;;;;;;;6.97;3.08;;;;;;;;;;5006444;28;20364;-70
2022/04/07 09:34:03;;;;;;;13.50;6.57;;;;;;;;;;5020695;28;20087;-71
2022/04/07 09:36:29;;;;;;;5.70;3.28;;;;;;;;;;5010854;28;20030;-69
2022/04/07 09:38:55;;;;;;;6.03;3.53;;;;;;;;;;5011702;28;20033;-73
2022/04/07 09:41:23;;;;;;;10.63;3.45;;;;;;;;;;5012956;28;20057;-70
2022/04/07 09:43:59;;;;;;;7.97;4.18;;;;;;;;;;5019212;28;20030;-69
2022/04/07 09:46:34;;;;;;;6.90;4.03;;;;;;;;;;5014467;28;20030;-69
2022/04/07 09:49:02;;;;;;;7.35;3.92;;;;;;;;;;5007669;28;20082;-69
2022/04/07 09:51:28;;;;;;;9.82;5.63;;;;;;;;;;5012067;28;20056;-73
2022/04/07 09:53:58;;;;;;;8.48;3.33;;;;;;;;;;5023795;28;20101;-71
2022/04/07 09:56:30;;;;;;;10.35;4.80;;;;;;;;;;5008303;28;20036;-72
2022/04/07 09:58:57;;;;;;;10.60;3.88;;;;;;;;;;5013040;28;20041;-72
2022/04/07 10:01:23;;;;;;;7.10;3.63;;;;;;;;;;5006593;28;20079;-72
2022/04/07 10:03:50;;;;;;;8.15;3.58;;;;;;;;;;5013313;28;20028;-73
2022/04/07 10:06:17;;;;;;;7.97;4.10;;;;;;;;;;5012910;28;20026;-73
2022/04/07 10:08:43;;;;;;;8.02;4.60;;;;;;;;;;5011330;28;20018;-72
2022/04/07 10:11:09;;;;;;;17.33;9.40;;;;;;;;;;5009719;28;20034;-72
2022/04/07 10:13:37;;;;;;;8.88;3.30;;;;;;;;;;5012486;28;20108;-72
2022/04/07 10:16:04;;;;;;;10.45;3.55;;;;;;;;;;5013238;28;20032;-70
2022/04/07 10:18:40;;;;;;;8.40;3.05;;;;;;;;;;5009887;28;20609;-74
2022/04/07 10:21:10;;;;;;;6.82;3.10;;;;;;;;;;5009946;28;20475;-71
2022/04/07 10:23:46;;;;;;;9.38;3.72;;;;;;;;;;5011946;28;20022;-77
2022/04/07 10:26:14;;;;;;;6.70;4.32;;;;;;;;;;5002229;28;20507;-70
2022/04/07 10:28:40;;;;;;;10.40;4.15;;;;;;;;;;4992792;28;20035;-75
2022/04/07 10:31:16;;;;;;;10.13;4.07;;;;;;;;;;5014869;28;20079;-70
2022/04/07 10:33:44;;;;;;;12.15;5.95;;;;;;;;;;5012228;28;20426;-77
2022/04/07 10:36:15;;;;;;;10.60;6.05;;;;;;;;;;5006313;28;20033;-76
2022/04/07 10:38:42;;;;;;;19.25;9.88;;;;;;;;;;5015777;28;20325;-73
2022/04/07 10:41:11;;;;;;;11.07;6.10;;;;;;;;;;5007991;28;20034;-71
2022/04/07 10:43:40;;;;;;;7.90;3.53;;;;;;;;;;5017690;28;20388;-72
2022/04/07 10:46:11;;;;;;;6.93;3.13;;;;;;;;;;5022185;28;20034;-72
2022/04/07 10:48:40;;;;;;;6.18;3.30;;;;;;;;;;5020186;28;20032;-72
2022/04/07 10:51:09;;;;;;;9.63;4.10;;;;;;;;;;5008258;28;20061;-71
2022/04/07 10:54:03;;;;;;;9.43;4.10;;;;;;;;;;5020828;28;20112;-71
2022/04/07 10:56:34;;;;;;;18.75;5.55;;;;;;;;;;5018903;28;20045;-74
2022/04/07 10:59:13;;;;;;;13.38;4.22;;;;;;;;;;5021118;28;20042;-72
2022/04/07 11:01:42;;;;;;;65.07;43.65;;;;;;;;;;5012172;28;20028;-70
2022/04/07 11:04:20;;;;;;;7.57;2.97;;;;;;;;;;5018755;28;20075;-78
2022/04/07 11:07:04;;;;;;;6.40;3.22;;;;;;;;;;5029964;28;20026;-77
2022/04/07 11:09:46;;;;;;;8.15;3.30;;;;;;;;;;5033782;28;20089;-79
2022/04/07 11:12:16;;;;;;;7.22;4.20;;;;;;;;;;5020586;28;20026;-77
2022/04/07 11:14:56;;;;;;;10.10;3.88;;;;;;;;;;5019404;28;20026;-78
2022/04/07 11:17:26;;;;;;;10.75;4.70;;;;;;;;;;5018750;28;20057;-77
2022/04/07 11:20:13;;;;;;;7.95;3.90;;;;;;;;;;5025242;28;20041;-77
2022/04/07 11:22:45;;;;;;;9.02;5.20;;;;;;;;;;5008714;28;20065;-71
2022/04/07 11:25:13;;;;;;;9.23;4.75;;;;;;;;;;5007026;28;20156;-72
2022/04/07 11:27:42;;;;;;;6.13;3.15;;;;;;;;;;5014337;28;20045;-72
2022/04/07 11:30:18;;;;;;;6.28;3.28;;;;;;;;;;5004302;28;20034;-72
2022/04/07 11:33:02;;;;;;;6.80;2.85;;;;;;;;;;5011619;28;20037;-71
2022/04/07 11:35:28;;;;;;;7.68;3.65;;;;;;;;;;5019266;28;20041;-71
2022/04/07 11:37:55;;;;;;;6.53;3.33;;;;;;;;;;5025736;28;20390;-71
2022/04/07 11:40:21;;;;;;;9.77;3.60;;;;;;;;;;5013119;28;20076;-71
2022/04/07 11:42:49;;;;;;;7.10;3.80;;;;;;;;;;4996462;28;20046;-77
2022/04/07 11:45:15;;;;;;;6.20;3.00;;;;;;;;;;5012858;28;20029;-75
2022/04/07 11:47:49;;;;;;;8.55;3.08;;;;;;;;;;5015321;28;20034;-76
2022/04/07 11:50:15;;;;;;;;;;;;;;;;;;5022113;28;20014;-77
2022/04/07 11:52:41;;;;;;;9.02;2.90;;;;;;;;;;5021019;28;19981;-75
2022/04/07 11:55:07;;;;;;;6.10;3.03;;;;;;;;;;5015493;28;20036;-76
2022/04/07 11:57:39;;;;;;;6.10;3.15;;;;;;;;;;5029427;28;20050;-75
2022/04/07 12:00:07;;;;;;;7.65;2.90;;;;;;;;;;5020950;28;20067;-76
2022/04/07 12:24:29;;;;;;;6.70;3.10;;;;;;;;;;5071006;27;20427;-71
2022/04/07 12:26:56;;;;;;;22.13;12.98;;;;;;;;;;5080289;28;20029;-71
2022/04/07 12:29:26;;;;;;;25.88;15.18;;;;;;;;;;5083878;28;20117;-72
2022/04/07 12:32:06;;;;;;;13.38;7.47;;;;;;;;;;5082725;28;20106;-71
2022/04/07 12:34:32;;;;;;;6.18;4.45;;;;;;;;;;5083728;28;20123;-69
2022/04/07 12:36:59;;;;;;;6.38;3.88;;;;;;;;;;5083191;28;20024;-68
2022/04/07 12:39:31;;;;;;;7.35;3.58;;;;;;;;;;5085160;28;20036;-69
2022/04/07 12:42:02;;;;;;;11.70;3.70;;;;;;;;;;5086317;28;20040;-69
2022/04/07 12:44:33;;;;;;;10.57;3.60;;;;;;;;;;5085419;28;20036;-68
2022/04/07 12:47:04;;;;;;;8.93;4.72;;;;;;;;;;5086107;28;20017;-71
2022/04/07 12:49:33;;;;;;;9.32;4.07;;;;;;;;;;5082371;28;20031;-69
2022/04/07 12:52:00;;;;;;;10.35;3.88;;;;;;;;;;5054753;28;20495;-71
2022/04/07 12:54:26;;;;;;;8.35;4.53;;;;;;;;;;5032924;28;20030;-69
2022/04/07 12:57:06;;;;;;;7.63;3.90;;;;;;;;;;5032756;28;20026;-67
2022/04/07 12:59:32;;;;;;;6.88;3.53;;;;;;;;;;5021809;28;20030;-68
2022/04/07 13:01:58;;;;;;;7.65;3.45;;;;;;;;;;5019695;28;20101;-69
2022/04/07 13:04:51;;;;;;;6.25;3.38;;;;;;;;;;5028974;28;20068;-68
2022/04/07 13:07:17;;;;;;;6.15;3.00;;;;;;;;;;5029041;28;20052;-69
2022/04/07 13:09:44;;;;;;;7.50;3.50;;;;;;;;;;5026667;28;20041;-69
2022/04/07 13:12:10;;;;;;;6.90;3.70;;;;;;;;;;5024833;28;20106;-71
2022/04/07 13:14:37;;;;;;;6.85;4.22;;;;;;;;;;5023892;28;20029;-70
2022/04/07 13:17:03;;;;;;;11.13;4.68;;;;;;;;;;5015406;28;20022;-70
2022/04/07 13:19:29;;;;;;;10.43;5.20;;;;;;;;;;5013352;28;20061;-70
2022/04/07 13:21:55;;;;;;;11.40;7.72;;;;;;;;;;5012412;28;20076;-75
2022/04/07 13:24:21;;;;;;;8.65;4.38;;;;;;;;;;5010604;28;20041;-76
2022/04/07 13:26:49;;;;;;;6.07;3.45;;;;;;;;;;5004261;28;20032;-81
2022/04/07 13:29:18;;;;;;;8.65;3.72;;;;;;;;;;5009275;28;20034;-72
2022/04/07 13:31:44;;;;;;;8.52;3.58;;;;;;;;;;5005561;28;20023;-74
2022/04/07 13:34:10;;;;;;;10.13;5.13;;;;;;;;;;5011947;28;20029;-71
2022/04/07 13:36:40;;;;;;;10.32;5.47;;;;;;;;;;5012000;28;20148;-71
2022/04/07 13:39:06;;;;;;;8.10;3.70;;;;;;;;;;5014039;28;20084;-75
2022/04/07 13:41:33;;;;;;;8.50;4.47;;;;;;;;;;5008667;28;20061;-79
2022/04/07 13:43:59;;;;;;;5.68;3.38;;;;;;;;;;5013054;28;20058;-73
2022/04/07 13:46:25;;;;;;;5.95;3.30;;;;;;;;;;5014024;28;20029;-74
2022/04/07 13:48:51;;;;;;;7.95;4.00;;;;;;;;;;5014658;28;20428;-70
2022/04/07 13:51:17;;;;;;;7.05;4.05;;;;;;;;;;5014146;28;20096;-72
2022/04/07 13:53:43;;;;;;;8.43;3.92;;;;;;;;;;5001078;28;20472;-71
2022/04/07 13:56:09;;;;;;;7.15;4.00;;;;;;;;;;5014198;28;20402;-70
2022/04/07 13:58:35;;;;;;;8.57;4.50;;;;;;;;;;5014817;28;20044;-71
2022/04/07 14:01:01;;;;;;;7.72;3.90;;;;;;;;;;5014156;28;20030;-74
2022/04/07 14:03:28;;;;;;;7.93;4.07;;;;;;;;;;5013818;28;20025;-73
2022/04/07 14:05:57;;;;;;;8.50;3.50;;;;;;;;;;5013498;28;20041;-83
2022/04/07 14:08:23;;;;;;;7.18;3.80;;;;;;;;;;5014248;28;20478;-75
2022/04/07 14:10:49;;;;;;;11.88;6.20;;;;;;;;;;5013676;28;20037;-71
2022/04/07 14:13:15;;;;;;;6.25;3.53;;;;;;;;;;5013991;28;20433;-72
2022/04/07 14:15:43;;;;;;;8.90;3.67;;;;;;;;;;5001490;28;20432;-69
2022/04/07 14:18:09;;;;;;;7.20;3.33;;;;;;;;;;5014379;28;20479;-79
2022/04/07 14:20:36;;;;;;;7.32;3.80;;;;;;;;;;5013798;28;20040;-71
2022/04/07 14:23:02;;;;;;;9.00;3.30;;;;;;;;;;5012875;28;20046;-69
2022/04/07 14:25:28;;;;;;;6.05;3.60;;;;;;;;;;5003810;28;20092;-71
2022/04/07 14:27:54;;;;;;;9.18;4.00;;;;;;;;;;5009545;28;20029;-80
2022/04/07 14:30:20;;;;;;;10.55;3.80;;;;;;;;;;5014171;28;20026;-81
2022/04/07 14:32:46;;;;;;;6.50;3.58;;;;;;;;;;5013772;28;20057;-73
2022/04/07 14:35:16;;;;;;;7.25;3.47;;;;;;;;;;5010070;28;20030;-75
2022/04/07 14:37:42;;;;;;;6.22;3.70;;;;;;;;;;5007955;28;20551;-78
2022/04/07 14:40:08;;;;;;;7.47;3.78;;;;;;;;;;5017255;28;20411;-73
2022/04/07 14:42:34;;;;;;;10.75;6.38;;;;;;;;;;5010886;28;20127;-87
2022/04/07 14:45:00;;;;;;;9.52;5.60;;;;;;;;;;5009496;28;20736;-92
2022/04/07 14:47:26;;;;;;;11.23;6.70;;;;;;;;;;5010099;28;20136;-81
2022/04/07 14:49:52;;;;;;;7.38;4.82;;;;;;;;;;5007408;28;20034;-74
2022/04/07 14:52:20;;;;;;;6.50;3.47;;;;;;;;;;5009840;28;20041;-89
2022/04/07 14:54:46;;;;;;;7.82;3.33;;;;;;;;;;5010154;28;20105;-89
2022/04/07 14:57:12;;;;;;;8.65;3.88;;;;;;;;;;5011696;28;20033;-95
2022/04/07 14:59:38;;;;;;;11.77;6.30;;;;;;;;;;5011505;28;20040;-74
2022/04/07 15:02:05;;;;;;;17.08;9.30;;;;;;;;;;5012875;28;20056;-76
2022/04/07 15:04:31;;;;;;;7.60;4.50;;;;;;;;;;5013440;28;20115;-80
2022/04/07 15:06:57;;;;;;;6.95;3.83;;;;;;;;;;5010899;28;20025;-76